SBI5515 UNNT-UACC
Flight info
| Callsign | SBI5515 |
|---|---|
| Flight time | 1h 45m |
| Altitude | 38000 |
| Route | LUNIM1K LUNIM B808 DAKIN M75 OLGAS OLGAS4N |
| Aircraft | A20N/M-SDE2E3FGHIRWXY/LB1 |
Departure
| Time | 2026-04-25 18:20 |
|---|---|
| Airport | Novosibirsk Tolmachevo Airport (UNNT) |
Arrival
| Time | 2026-04-25 20:05 |
|---|---|
| Airport | Nursultan Nazarbayev International Airport (UACC) |
| Time | Latitude | Longitude | Altitude | Speed | Heading |
|---|---|---|---|---|---|
| 2026-04-25 17:33 | 55.01035 | 82.66833 | 372 ft | 0 kts | 172° |
| 2026-04-25 18:09 | 55.01043 | 82.66832 | 372 ft | 2 kts | 172° |
| 2026-04-25 18:09 | 55.01057 | 82.66826 | 372 ft | 2 kts | 160° |
| 2026-04-25 18:09 | 55.01067 | 82.66819 | 372 ft | 2 kts | 154° |
| 2026-04-25 18:10 | 55.01083 | 82.66801 | 372 ft | 2 kts | 142° |
| 2026-04-25 18:10 | 55.01095 | 82.66784 | 372 ft | 2 kts | 133° |
| 2026-04-25 18:10 | 55.01105 | 82.66765 | 372 ft | 2 kts | 144° |
| 2026-04-25 18:10 | 55.01118 | 82.66752 | 372 ft | 2 kts | 160° |
| 2026-04-25 18:11 | 55.01132 | 82.66747 | 372 ft | 2 kts | 176° |
| 2026-04-25 18:11 | 55.01143 | 82.66744 | 372 ft | 0 kts | 171° |
| 2026-04-25 18:11 | 55.01144 | 82.66744 | 372 ft | 0 kts | 171° |
| 2026-04-25 18:14 | 55.01138 | 82.66746 | 372 ft | 1 kts | 171° |
| 2026-04-25 18:14 | 55.01111 | 82.66763 | 372 ft | 5 kts | 141° |
| 2026-04-25 18:14 | 55.01098 | 82.66829 | 372 ft | 6 kts | 99° |
| 2026-04-25 18:15 | 55.01079 | 82.66909 | 372 ft | 7 kts | 103° |
| 2026-04-25 18:15 | 55.01082 | 82.67008 | 372 ft | 8 kts | 82° |
| 2026-04-25 18:15 | 55.01094 | 82.67120 | 372 ft | 9 kts | 80° |
| 2026-04-25 18:15 | 55.01105 | 82.67244 | 372 ft | 11 kts | 83° |
| 2026-04-25 18:16 | 55.01108 | 82.67383 | 372 ft | 11 kts | 87° |
| 2026-04-25 18:16 | 55.01125 | 82.67459 | 372 ft | 7 kts | 47° |
| 2026-04-25 18:16 | 55.01225 | 82.67568 | 372 ft | 9 kts | 31° |
| 2026-04-25 18:17 | 55.01284 | 82.67630 | 372 ft | 8 kts | 31° |
| 2026-04-25 18:17 | 55.01342 | 82.67690 | 372 ft | 10 kts | 31° |
| 2026-04-25 18:17 | 55.01405 | 82.67757 | 372 ft | 7 kts | 31° |
| 2026-04-25 18:17 | 55.01416 | 82.67767 | 372 ft | 4 kts | 24° |
| 2026-04-25 18:18 | 55.01465 | 82.67775 | 372 ft | 8 kts | 353° |
| 2026-04-25 18:18 | 55.01487 | 82.67712 | 372 ft | 4 kts | 261° |
| 2026-04-25 18:18 | 55.01486 | 82.67700 | 372 ft | 0 kts | 261° |
| 2026-04-25 18:19 | 55.01484 | 82.67680 | 372 ft | 12 kts | 261° |
| 2026-04-25 18:19 | 55.01422 | 82.67011 | 373 ft | 98 kts | 261° |
| 2026-04-25 18:19 | 55.01276 | 82.65394 | 388 ft | 165 kts | 258° |
| 2026-04-25 18:20 | 55.01092 | 82.63390 | 1057 ft | 171 kts | 256° |
| 2026-04-25 18:20 | 55.00903 | 82.61374 | 1916 ft | 173 kts | 254° |
| 2026-04-25 18:20 | 55.00698 | 82.59262 | 2530 ft | 186 kts | 255° |
| 2026-04-25 18:20 | 55.00467 | 82.57014 | 3130 ft | 201 kts | 255° |
| 2026-04-25 18:21 | 55.00234 | 82.54536 | 3911 ft | 210 kts | 258° |
| 2026-04-25 18:21 | 55.00197 | 82.51996 | 4666 ft | 224 kts | 276° |
| 2026-04-25 18:21 | 55.00721 | 82.49345 | 5402 ft | 241 kts | 294° |
| 2026-04-25 18:21 | 55.01505 | 82.46784 | 6363 ft | 243 kts | 296° |
| 2026-04-25 18:22 | 55.02294 | 82.44241 | 7285 ft | 246 kts | 296° |
| 2026-04-25 18:22 | 55.02831 | 82.42463 | 7877 ft | 250 kts | 295° |
| 2026-04-25 18:22 | 55.03870 | 82.38882 | 9085 ft | 253 kts | 291° |
| 2026-04-25 18:22 | 55.04219 | 82.35899 | 9966 ft | 255 kts | 269° |
| 2026-04-25 18:23 | 55.03972 | 82.32827 | 10708 ft | 263 kts | 258° |
| 2026-04-25 18:23 | 55.03601 | 82.29670 | 11374 ft | 274 kts | 258° |
| 2026-04-25 18:23 | 55.03236 | 82.26387 | 11968 ft | 286 kts | 259° |
| 2026-04-25 18:23 | 55.02882 | 82.22917 | 12520 ft | 300 kts | 259° |
| 2026-04-25 18:24 | 55.02516 | 82.19295 | 13120 ft | 311 kts | 259° |
| 2026-04-25 18:24 | 55.02139 | 82.15529 | 13818 ft | 318 kts | 258° |
| 2026-04-25 18:24 | 55.01762 | 82.11772 | 14610 ft | 321 kts | 258° |
| 2026-04-25 18:24 | 55.01367 | 82.07904 | 15405 ft | 325 kts | 258° |
| 2026-04-25 18:25 | 55.00969 | 82.04067 | 16142 ft | 329 kts | 258° |
| 2026-04-25 18:25 | 55.00620 | 82.00118 | 16876 ft | 333 kts | 261° |
| 2026-04-25 18:25 | 55.00413 | 81.96092 | 17586 ft | 337 kts | 264° |
| 2026-04-25 18:25 | 55.00309 | 81.92033 | 18277 ft | 341 kts | 265° |
| 2026-04-25 18:26 | 55.00211 | 81.87891 | 18937 ft | 345 kts | 265° |
| 2026-04-25 18:26 | 55.00113 | 81.83736 | 19603 ft | 348 kts | 265° |
| 2026-04-25 18:26 | 55.00014 | 81.79543 | 20243 ft | 352 kts | 266° |
| 2026-04-25 18:26 | 54.99911 | 81.75262 | 20905 ft | 355 kts | 266° |
| 2026-04-25 18:27 | 54.99807 | 81.70991 | 21539 ft | 359 kts | 266° |
| 2026-04-25 18:27 | 54.99701 | 81.66663 | 22177 ft | 362 kts | 266° |
| 2026-04-25 18:27 | 54.99590 | 81.62281 | 22787 ft | 366 kts | 266° |
| 2026-04-25 18:27 | 54.99478 | 81.57868 | 23383 ft | 370 kts | 266° |
| 2026-04-25 18:28 | 54.99363 | 81.53383 | 23964 ft | 373 kts | 266° |
| 2026-04-25 18:28 | 54.99247 | 81.48902 | 24533 ft | 377 kts | 266° |
| 2026-04-25 18:28 | 54.99126 | 81.44335 | 25126 ft | 379 kts | 266° |
| 2026-04-25 18:29 | 54.98876 | 81.35145 | 26207 ft | 385 kts | 266° |
| 2026-04-25 18:29 | 54.98747 | 81.30505 | 26740 ft | 388 kts | 266° |
| 2026-04-25 18:30 | 54.98346 | 81.16401 | 28219 ft | 394 kts | 266° |
| 2026-04-25 18:30 | 54.98208 | 81.11628 | 28664 ft | 397 kts | 266° |
| 2026-04-25 18:30 | 54.98064 | 81.06787 | 29087 ft | 399 kts | 266° |
| 2026-04-25 18:30 | 54.97919 | 81.01976 | 29504 ft | 401 kts | 266° |
| 2026-04-25 18:31 | 54.97772 | 80.97179 | 29874 ft | 403 kts | 266° |
| 2026-04-25 18:31 | 54.97565 | 80.92341 | 30226 ft | 405 kts | 264° |
| 2026-04-25 18:31 | 54.97275 | 80.87424 | 30580 ft | 407 kts | 263° |
| 2026-04-25 18:31 | 54.96983 | 80.82595 | 31022 ft | 406 kts | 263° |
| 2026-04-25 18:32 | 54.96688 | 80.77756 | 31548 ft | 403 kts | 264° |
| 2026-04-25 18:32 | 54.96393 | 80.72960 | 32066 ft | 400 kts | 264° |
| 2026-04-25 18:32 | 54.96099 | 80.68183 | 32572 ft | 397 kts | 264° |
| 2026-04-25 18:32 | 54.95806 | 80.63426 | 33068 ft | 394 kts | 264° |
| 2026-04-25 18:33 | 54.95513 | 80.58732 | 33539 ft | 392 kts | 264° |
| 2026-04-25 18:33 | 54.95220 | 80.54046 | 33961 ft | 390 kts | 264° |
| 2026-04-25 18:33 | 54.94928 | 80.49413 | 34383 ft | 388 kts | 264° |
| 2026-04-25 18:33 | 54.94630 | 80.44730 | 34829 ft | 386 kts | 265° |
| 2026-04-25 18:34 | 54.94337 | 80.40136 | 35206 ft | 383 kts | 265° |
| 2026-04-25 18:34 | 54.94046 | 80.35571 | 35481 ft | 382 kts | 265° |
| 2026-04-25 18:34 | 54.93750 | 80.30981 | 35726 ft | 382 kts | 264° |
| 2026-04-25 18:34 | 54.93454 | 80.26412 | 35939 ft | 383 kts | 264° |
| 2026-04-25 18:35 | 54.93158 | 80.21854 | 36148 ft | 383 kts | 264° |
| 2026-04-25 18:35 | 54.92858 | 80.17276 | 36345 ft | 384 kts | 264° |
| 2026-04-25 18:35 | 54.92556 | 80.12676 | 36505 ft | 385 kts | 264° |
| 2026-04-25 18:35 | 54.92247 | 80.08039 | 36666 ft | 386 kts | 264° |
| 2026-04-25 18:36 | 54.91939 | 80.03429 | 36855 ft | 386 kts | 264° |
| 2026-04-25 18:36 | 54.91630 | 79.98827 | 37041 ft | 388 kts | 264° |
| 2026-04-25 18:36 | 54.91315 | 79.94170 | 37183 ft | 389 kts | 264° |
| 2026-04-25 18:36 | 54.91000 | 79.89520 | 37322 ft | 391 kts | 264° |
| 2026-04-25 18:37 | 54.90680 | 79.84837 | 37453 ft | 392 kts | 264° |
| 2026-04-25 18:37 | 54.90359 | 79.80187 | 37564 ft | 394 kts | 264° |
| 2026-04-25 18:37 | 54.90031 | 79.75454 | 37693 ft | 395 kts | 264° |
| 2026-04-25 18:37 | 54.89702 | 79.70732 | 37829 ft | 396 kts | 264° |
| 2026-04-25 18:38 | 54.89372 | 79.65967 | 37933 ft | 397 kts | 264° |
| 2026-04-25 18:38 | 54.89039 | 79.61243 | 37934 ft | 398 kts | 264° |
| 2026-04-25 18:38 | 54.88363 | 79.51760 | 37928 ft | 398 kts | 264° |
| 2026-04-25 18:39 | 54.87679 | 79.42240 | 37938 ft | 400 kts | 264° |
| 2026-04-25 18:39 | 54.86990 | 79.32733 | 37926 ft | 400 kts | 263° |
| 2026-04-25 18:40 | 54.86285 | 79.23151 | 37933 ft | 399 kts | 263° |
| 2026-04-25 18:40 | 54.85582 | 79.13666 | 37917 ft | 399 kts | 263° |
| 2026-04-25 18:41 | 54.84871 | 79.04193 | 37919 ft | 398 kts | 263° |
| 2026-04-25 18:41 | 54.84153 | 78.94714 | 37913 ft | 399 kts | 263° |
| 2026-04-25 18:42 | 54.83541 | 78.86730 | 37919 ft | 399 kts | 263° |
| 2026-04-25 18:42 | 54.82687 | 78.75695 | 37904 ft | 399 kts | 263° |
| 2026-04-25 18:43 | 54.81946 | 78.66209 | 37913 ft | 398 kts | 263° |
| 2026-04-25 18:43 | 54.81195 | 78.56729 | 37901 ft | 399 kts | 263° |
| 2026-04-25 18:44 | 54.80435 | 78.47193 | 37909 ft | 398 kts | 263° |
| 2026-04-25 18:44 | 54.79675 | 78.37774 | 37898 ft | 399 kts | 263° |
| 2026-04-25 18:45 | 54.78902 | 78.28289 | 37894 ft | 399 kts | 262° |
| 2026-04-25 18:45 | 54.78119 | 78.18789 | 37896 ft | 399 kts | 262° |
| 2026-04-25 18:46 | 54.77335 | 78.09337 | 37887 ft | 400 kts | 262° |
| 2026-04-25 18:46 | 54.76537 | 77.99806 | 37894 ft | 400 kts | 262° |
| 2026-04-25 18:47 | 54.75731 | 77.90320 | 37884 ft | 399 kts | 262° |
| 2026-04-25 18:47 | 54.74924 | 77.80880 | 37878 ft | 399 kts | 262° |
| 2026-04-25 18:48 | 54.74106 | 77.71408 | 37873 ft | 401 kts | 262° |
| 2026-04-25 18:48 | 54.73278 | 77.61897 | 37871 ft | 401 kts | 262° |
| 2026-04-25 18:49 | 54.72444 | 77.52427 | 37867 ft | 402 kts | 262° |
| 2026-04-25 18:49 | 54.71597 | 77.42884 | 37871 ft | 403 kts | 262° |
| 2026-04-25 18:50 | 54.70744 | 77.33367 | 37868 ft | 403 kts | 261° |
| 2026-04-25 18:50 | 54.69884 | 77.23864 | 37862 ft | 403 kts | 261° |
| 2026-04-25 18:51 | 54.69157 | 77.15887 | 37876 ft | 403 kts | 261° |
| 2026-04-25 18:51 | 54.68132 | 77.04752 | 37875 ft | 403 kts | 261° |
| 2026-04-25 18:52 | 54.67245 | 76.95200 | 37881 ft | 403 kts | 261° |
| 2026-04-25 18:52 | 54.66356 | 76.85696 | 37878 ft | 403 kts | 261° |
| 2026-04-25 18:53 | 54.65456 | 76.76183 | 37873 ft | 403 kts | 261° |
| 2026-04-25 18:53 | 54.64551 | 76.66685 | 37877 ft | 404 kts | 261° |
| 2026-04-25 18:54 | 54.63176 | 76.52413 | 37864 ft | 403 kts | 261° |
| 2026-04-25 18:55 | 54.62252 | 76.42921 | 37870 ft | 403 kts | 260° |
| 2026-04-25 18:55 | 54.61321 | 76.33427 | 37860 ft | 402 kts | 259° |
| 2026-04-25 18:56 | 54.60387 | 76.24001 | 37861 ft | 403 kts | 259° |
| 2026-04-25 18:56 | 54.59439 | 76.14498 | 37862 ft | 403 kts | 259° |
| 2026-04-25 18:57 | 54.58486 | 76.05032 | 37865 ft | 403 kts | 259° |
| 2026-04-25 18:57 | 54.57522 | 75.95531 | 37854 ft | 402 kts | 259° |
| 2026-04-25 18:58 | 54.56560 | 75.86125 | 37856 ft | 402 kts | 259° |
| 2026-04-25 18:58 | 54.55097 | 75.71967 | 37834 ft | 401 kts | 259° |
| 2026-04-25 18:59 | 54.53122 | 75.53136 | 37833 ft | 400 kts | 259° |
| 2026-04-25 19:00 | 54.51633 | 75.39095 | 37838 ft | 399 kts | 259° |
| 2026-04-25 19:01 | 54.50129 | 75.25085 | 37841 ft | 399 kts | 258° |
| 2026-04-25 19:01 | 54.49118 | 75.15756 | 37822 ft | 398 kts | 258° |
| 2026-04-25 19:02 | 54.47587 | 75.01741 | 37814 ft | 398 kts | 258° |
| 2026-04-25 19:03 | 54.46216 | 74.89349 | 37823 ft | 398 kts | 258° |
| 2026-04-25 19:03 | 54.45011 | 74.78528 | 37832 ft | 397 kts | 258° |
| 2026-04-25 19:04 | 54.43446 | 74.64619 | 37832 ft | 396 kts | 258° |
| 2026-04-25 19:05 | 54.41336 | 74.46115 | 37826 ft | 396 kts | 257° |
| 2026-04-25 19:06 | 54.40272 | 74.36890 | 37821 ft | 396 kts | 257° |
| 2026-04-25 19:06 | 54.38662 | 74.23041 | 37821 ft | 396 kts | 257° |
| 2026-04-25 19:07 | 54.37043 | 74.09271 | 37819 ft | 395 kts | 257° |
| 2026-04-25 19:08 | 54.35405 | 73.95455 | 37819 ft | 395 kts | 256° |
| 2026-04-25 19:09 | 54.33382 | 73.78642 | 37808 ft | 395 kts | 256° |
| 2026-04-25 19:10 | 54.31517 | 73.63322 | 37805 ft | 395 kts | 256° |
| 2026-04-25 19:10 | 54.30394 | 73.54173 | 37804 ft | 395 kts | 256° |
| 2026-04-25 19:11 | 54.29261 | 73.44991 | 37801 ft | 395 kts | 256° |
| 2026-04-25 19:11 | 54.28122 | 73.35823 | 37800 ft | 394 kts | 256° |
| 2026-04-25 19:12 | 54.26984 | 73.26738 | 37797 ft | 394 kts | 255° |
| 2026-04-25 19:12 | 54.25832 | 73.17595 | 37801 ft | 393 kts | 255° |
| 2026-04-25 19:13 | 54.24680 | 73.08496 | 37789 ft | 393 kts | 255° |
| 2026-04-25 19:13 | 54.23523 | 72.99435 | 37780 ft | 393 kts | 255° |
| 2026-04-25 19:14 | 54.22349 | 72.90299 | 37786 ft | 393 kts | 255° |
| 2026-04-25 19:14 | 54.21180 | 72.81250 | 37776 ft | 392 kts | 255° |
| 2026-04-25 19:15 | 54.20004 | 72.72212 | 37766 ft | 393 kts | 255° |
| 2026-04-25 19:15 | 54.18819 | 72.63166 | 37760 ft | 392 kts | 255° |
| 2026-04-25 19:16 | 54.17177 | 72.54385 | 37766 ft | 389 kts | 243° |
| 2026-04-25 19:16 | 54.14166 | 72.46800 | 37767 ft | 390 kts | 229° |
| 2026-04-25 19:17 | 54.09971 | 72.40875 | 37766 ft | 395 kts | 214° |
| 2026-04-25 19:17 | 54.04917 | 72.37200 | 37768 ft | 403 kts | 200° |
| 2026-04-25 19:18 | 53.99432 | 72.35231 | 37780 ft | 405 kts | 197° |
| 2026-04-25 19:18 | 53.93922 | 72.33385 | 37767 ft | 405 kts | 196° |
| 2026-04-25 19:19 | 53.88439 | 72.31563 | 37760 ft | 404 kts | 196° |
| 2026-04-25 19:19 | 53.82902 | 72.29742 | 37763 ft | 405 kts | 196° |
| 2026-04-25 19:20 | 53.77420 | 72.27940 | 37766 ft | 404 kts | 196° |
| 2026-04-25 19:20 | 53.71907 | 72.26139 | 37772 ft | 404 kts | 196° |
| 2026-04-25 19:21 | 53.66386 | 72.24339 | 37774 ft | 405 kts | 196° |
| 2026-04-25 19:21 | 53.58119 | 72.21718 | 37782 ft | 405 kts | 196° |
| 2026-04-25 19:22 | 53.52566 | 72.20007 | 37783 ft | 406 kts | 196° |
| 2026-04-25 19:23 | 53.44306 | 72.17464 | 37785 ft | 404 kts | 196° |
| 2026-04-25 19:23 | 53.36063 | 72.14933 | 37799 ft | 405 kts | 196° |
| 2026-04-25 19:24 | 53.30551 | 72.13239 | 37816 ft | 405 kts | 196° |
| 2026-04-25 19:25 | 53.19488 | 72.09861 | 37797 ft | 405 kts | 196° |
| 2026-04-25 19:25 | 53.13981 | 72.08186 | 37805 ft | 405 kts | 196° |
| 2026-04-25 19:26 | 53.08453 | 72.06506 | 37816 ft | 406 kts | 196° |
| 2026-04-25 19:26 | 53.02927 | 72.04835 | 37810 ft | 404 kts | 196° |
| 2026-04-25 19:27 | 52.98312 | 72.03445 | 37807 ft | 405 kts | 195° |
| 2026-04-25 19:27 | 52.91889 | 72.01524 | 37800 ft | 403 kts | 196° |
| 2026-04-25 19:28 | 52.86405 | 71.99881 | 37829 ft | 405 kts | 196° |
| 2026-04-25 19:28 | 52.80885 | 71.98236 | 37800 ft | 405 kts | 196° |
| 2026-04-25 19:29 | 52.75359 | 71.96590 | 37816 ft | 404 kts | 196° |
| 2026-04-25 19:29 | 52.69830 | 71.94946 | 37822 ft | 403 kts | 196° |
| 2026-04-25 19:30 | 52.64310 | 71.93308 | 37734 ft | 403 kts | 197° |
| 2026-04-25 19:30 | 52.61593 | 71.92440 | 37294 ft | 403 kts | 197° |
| 2026-04-25 19:30 | 52.58865 | 71.91534 | 36572 ft | 406 kts | 197° |
| 2026-04-25 19:31 | 52.56101 | 71.90617 | 35929 ft | 408 kts | 197° |
| 2026-04-25 19:31 | 52.53317 | 71.89695 | 35329 ft | 408 kts | 196° |
| 2026-04-25 19:31 | 52.50556 | 71.88786 | 34729 ft | 408 kts | 196° |
| 2026-04-25 19:31 | 52.47782 | 71.87881 | 33897 ft | 408 kts | 196° |
| 2026-04-25 19:32 | 52.45033 | 71.86986 | 32999 ft | 410 kts | 196° |
| 2026-04-25 19:32 | 52.42239 | 71.86079 | 32000 ft | 413 kts | 196° |
| 2026-04-25 19:32 | 52.39460 | 71.85172 | 30841 ft | 412 kts | 196° |
| 2026-04-25 19:32 | 52.37604 | 71.84571 | 29812 ft | 412 kts | 196° |
| 2026-04-25 19:33 | 52.33929 | 71.83379 | 28419 ft | 401 kts | 196° |
| 2026-04-25 19:33 | 52.31233 | 71.82509 | 28051 ft | 388 kts | 196° |
| 2026-04-25 19:33 | 52.28630 | 71.81667 | 27622 ft | 380 kts | 196° |
| 2026-04-25 19:33 | 52.26063 | 71.80836 | 27164 ft | 374 kts | 196° |
| 2026-04-25 19:34 | 52.23533 | 71.80017 | 26684 ft | 369 kts | 196° |
| 2026-04-25 19:34 | 52.21032 | 71.79208 | 26199 ft | 365 kts | 196° |
| 2026-04-25 19:34 | 52.18556 | 71.78407 | 25720 ft | 361 kts | 196° |
| 2026-04-25 19:34 | 52.16105 | 71.77617 | 25244 ft | 357 kts | 196° |
| 2026-04-25 19:35 | 52.13704 | 71.76842 | 24766 ft | 354 kts | 195° |
| 2026-04-25 19:35 | 52.11308 | 71.76073 | 24289 ft | 351 kts | 195° |
| 2026-04-25 19:35 | 52.08912 | 71.75425 | 23820 ft | 349 kts | 192° |
| 2026-04-25 19:35 | 52.06494 | 71.75002 | 23527 ft | 353 kts | 189° |
| 2026-04-25 19:36 | 52.04058 | 71.74731 | 23543 ft | 357 kts | 189° |
| 2026-04-25 19:36 | 52.01572 | 71.74447 | 23563 ft | 358 kts | 189° |
| 2026-04-25 19:36 | 51.99079 | 71.74161 | 23584 ft | 359 kts | 189° |
| 2026-04-25 19:36 | 51.96587 | 71.73878 | 23608 ft | 360 kts | 189° |
| 2026-04-25 19:37 | 51.94103 | 71.73600 | 23628 ft | 359 kts | 189° |
| 2026-04-25 19:37 | 51.91607 | 71.73318 | 23644 ft | 360 kts | 189° |
| 2026-04-25 19:37 | 51.89117 | 71.73041 | 23659 ft | 360 kts | 189° |
| 2026-04-25 19:37 | 51.86609 | 71.72763 | 23660 ft | 361 kts | 189° |
| 2026-04-25 19:38 | 51.84106 | 71.72483 | 23487 ft | 362 kts | 189° |
| 2026-04-25 19:38 | 51.81621 | 71.72208 | 22945 ft | 360 kts | 189° |
| 2026-04-25 19:38 | 51.79146 | 71.71938 | 22428 ft | 358 kts | 189° |
| 2026-04-25 19:38 | 51.76688 | 71.71666 | 21913 ft | 355 kts | 189° |
| 2026-04-25 19:39 | 51.74232 | 71.71397 | 21400 ft | 352 kts | 189° |
| 2026-04-25 19:39 | 51.71818 | 71.71133 | 20910 ft | 349 kts | 189° |
| 2026-04-25 19:39 | 51.69409 | 71.70867 | 20419 ft | 347 kts | 189° |
| 2026-04-25 19:39 | 51.67031 | 71.70606 | 19930 ft | 344 kts | 189° |
| 2026-04-25 19:40 | 51.64653 | 71.70345 | 19447 ft | 341 kts | 189° |
| 2026-04-25 19:40 | 51.62279 | 71.70083 | 18960 ft | 339 kts | 189° |
| 2026-04-25 19:40 | 51.59940 | 71.69826 | 18474 ft | 337 kts | 189° |
| 2026-04-25 19:40 | 51.57644 | 71.69572 | 18004 ft | 335 kts | 189° |
| 2026-04-25 19:41 | 51.55306 | 71.69317 | 17521 ft | 333 kts | 189° |
| 2026-04-25 19:41 | 51.53034 | 71.69070 | 17051 ft | 330 kts | 189° |
| 2026-04-25 19:41 | 51.50732 | 71.68819 | 16564 ft | 329 kts | 189° |
| 2026-04-25 19:41 | 51.49239 | 71.68657 | 16245 ft | 328 kts | 189° |
| 2026-04-25 19:42 | 51.46230 | 71.68326 | 15596 ft | 325 kts | 189° |
| 2026-04-25 19:42 | 51.43973 | 71.68081 | 15106 ft | 324 kts | 189° |
| 2026-04-25 19:42 | 51.41758 | 71.67839 | 14615 ft | 323 kts | 190° |
| 2026-04-25 19:42 | 51.39525 | 71.67596 | 14124 ft | 321 kts | 190° |
| 2026-04-25 19:43 | 51.37298 | 71.67354 | 13639 ft | 320 kts | 190° |
| 2026-04-25 19:43 | 51.35093 | 71.67114 | 13163 ft | 318 kts | 190° |
| 2026-04-25 19:43 | 51.32912 | 71.66876 | 12678 ft | 316 kts | 189° |
| 2026-04-25 19:43 | 51.30733 | 71.66640 | 12189 ft | 315 kts | 189° |
| 2026-04-25 19:44 | 51.28580 | 71.66254 | 11697 ft | 309 kts | 197° |
| 2026-04-25 19:44 | 51.26541 | 71.65279 | 11237 ft | 302 kts | 206° |
| 2026-04-25 19:44 | 51.24683 | 71.63861 | 10818 ft | 297 kts | 211° |
| 2026-04-25 19:44 | 51.22866 | 71.62347 | 10407 ft | 293 kts | 211° |
| 2026-04-25 19:45 | 51.21100 | 71.60869 | 10266 ft | 279 kts | 211° |
| 2026-04-25 19:45 | 51.19414 | 71.59456 | 10099 ft | 268 kts | 211° |
| 2026-04-25 19:45 | 51.17807 | 71.58106 | 9958 ft | 256 kts | 211° |
| 2026-04-25 19:45 | 51.16253 | 71.56805 | 9616 ft | 253 kts | 212° |
| 2026-04-25 19:46 | 51.14703 | 71.55502 | 9243 ft | 251 kts | 211° |
| 2026-04-25 19:46 | 51.13165 | 71.54208 | 8877 ft | 249 kts | 211° |
| 2026-04-25 19:46 | 51.11654 | 71.52947 | 8509 ft | 246 kts | 211° |
| 2026-04-25 19:46 | 51.10142 | 71.51685 | 8164 ft | 244 kts | 212° |
| 2026-04-25 19:47 | 51.08640 | 71.50428 | 7803 ft | 242 kts | 210° |
| 2026-04-25 19:47 | 51.07165 | 71.49208 | 7412 ft | 242 kts | 211° |
| 2026-04-25 19:47 | 51.05667 | 71.47962 | 7005 ft | 240 kts | 210° |
| 2026-04-25 19:47 | 51.04214 | 71.46738 | 6632 ft | 238 kts | 210° |
| 2026-04-25 19:48 | 51.02766 | 71.45503 | 6290 ft | 235 kts | 210° |
| 2026-04-25 19:48 | 51.01346 | 71.44279 | 6047 ft | 227 kts | 210° |
| 2026-04-25 19:48 | 51.00001 | 71.43122 | 5974 ft | 215 kts | 208° |
| 2026-04-25 19:48 | 50.98578 | 71.42348 | 5975 ft | 218 kts | 197° |
| 2026-04-25 19:49 | 50.97086 | 71.41858 | 5977 ft | 218 kts | 196° |
| 2026-04-25 19:49 | 50.96114 | 71.41492 | 5973 ft | 218 kts | 198° |
| 2026-04-25 19:49 | 50.94163 | 71.40685 | 5973 ft | 218 kts | 199° |
| 2026-04-25 19:49 | 50.92831 | 71.39610 | 5960 ft | 213 kts | 224° |
| 2026-04-25 19:50 | 50.92364 | 71.35362 | 5968 ft | 221 kts | 289° |
| 2026-04-25 19:50 | 50.93420 | 71.33497 | 5972 ft | 241 kts | 321° |
| 2026-04-25 19:50 | 50.95062 | 71.32690 | 5971 ft | 259 kts | 353° |
| 2026-04-25 19:51 | 50.96848 | 71.33281 | 5971 ft | 268 kts | 26° |
| 2026-04-25 19:51 | 50.98261 | 71.35152 | 5972 ft | 267 kts | 58° |
| 2026-04-25 19:51 | 50.99111 | 71.37726 | 5979 ft | 262 kts | 75° |
| 2026-04-25 19:51 | 50.99620 | 71.40475 | 5977 ft | 260 kts | 81° |
| 2026-04-25 19:52 | 51.00059 | 71.43230 | 5975 ft | 260 kts | 81° |
| 2026-04-25 19:52 | 51.00590 | 71.46000 | 5922 ft | 262 kts | 76° |
| 2026-04-25 19:52 | 51.01196 | 71.48725 | 5839 ft | 261 kts | 75° |
| 2026-04-25 19:52 | 51.01807 | 71.51420 | 5745 ft | 261 kts | 75° |
| 2026-04-25 19:53 | 51.02418 | 71.54137 | 5628 ft | 259 kts | 76° |
| 2026-04-25 19:53 | 51.03007 | 71.56799 | 5524 ft | 259 kts | 76° |
| 2026-04-25 19:53 | 51.03595 | 71.59496 | 5430 ft | 258 kts | 76° |
| 2026-04-25 19:53 | 51.04178 | 71.62193 | 5315 ft | 257 kts | 76° |
| 2026-04-25 19:54 | 51.04757 | 71.64869 | 5210 ft | 256 kts | 76° |
| 2026-04-25 19:54 | 51.05335 | 71.67549 | 5065 ft | 257 kts | 77° |
| 2026-04-25 19:54 | 51.05904 | 71.70194 | 4952 ft | 254 kts | 77° |
| 2026-04-25 19:54 | 51.06289 | 71.71980 | 4870 ft | 254 kts | 78° |
| 2026-04-25 19:55 | 51.07046 | 71.75519 | 4587 ft | 252 kts | 78° |
| 2026-04-25 19:55 | 51.07605 | 71.78123 | 4340 ft | 251 kts | 78° |
| 2026-04-25 19:55 | 51.08165 | 71.80740 | 4085 ft | 250 kts | 78° |
| 2026-04-25 19:55 | 51.08755 | 71.83343 | 3815 ft | 250 kts | 69° |
| 2026-04-25 19:56 | 51.09869 | 71.85501 | 3786 ft | 258 kts | 36° |
| 2026-04-25 19:56 | 51.11486 | 71.86574 | 3789 ft | 257 kts | 5° |
| 2026-04-25 19:56 | 51.13261 | 71.86660 | 3805 ft | 255 kts | 353° |
| 2026-04-25 19:56 | 51.14951 | 71.86028 | 3769 ft | 238 kts | 322° |
| 2026-04-25 19:57 | 51.16159 | 71.84496 | 3808 ft | 213 kts | 306° |
| 2026-04-25 19:57 | 51.17151 | 71.82766 | 3856 ft | 211 kts | 302° |
| 2026-04-25 19:57 | 51.18125 | 71.81033 | 3814 ft | 210 kts | 303° |
| 2026-04-25 19:57 | 51.19020 | 71.79230 | 3790 ft | 202 kts | 290° |
| 2026-04-25 19:58 | 51.19480 | 71.77184 | 3785 ft | 192 kts | 270° |
| 2026-04-25 19:58 | 51.19521 | 71.75114 | 3784 ft | 183 kts | 253° |
| 2026-04-25 19:58 | 51.19009 | 71.73332 | 3789 ft | 174 kts | 230° |
| 2026-04-25 19:58 | 51.18248 | 71.71864 | 3788 ft | 173 kts | 224° |
| 2026-04-25 19:59 | 51.17438 | 71.70451 | 3786 ft | 172 kts | 223° |
| 2026-04-25 19:59 | 51.16616 | 71.69084 | 3785 ft | 171 kts | 222° |
| 2026-04-25 19:59 | 51.15778 | 71.67729 | 3785 ft | 171 kts | 221° |
| 2026-04-25 19:59 | 51.14941 | 71.66403 | 3778 ft | 164 kts | 221° |
| 2026-04-25 20:00 | 51.14183 | 71.65211 | 3755 ft | 146 kts | 220° |
| 2026-04-25 20:00 | 51.13720 | 71.64483 | 3768 ft | 132 kts | 220° |
| 2026-04-25 20:00 | 51.12852 | 71.63136 | 3719 ft | 130 kts | 219° |
| 2026-04-25 20:00 | 51.12205 | 71.62137 | 3559 ft | 129 kts | 220° |
| 2026-04-25 20:01 | 51.10932 | 71.60161 | 3215 ft | 128 kts | 219° |
| 2026-04-25 20:01 | 51.10303 | 71.59184 | 3045 ft | 127 kts | 220° |
| 2026-04-25 20:01 | 51.09670 | 71.58197 | 2880 ft | 127 kts | 219° |
| 2026-04-25 20:02 | 51.09048 | 71.57227 | 2710 ft | 126 kts | 220° |
| 2026-04-25 20:02 | 51.08422 | 71.56252 | 2544 ft | 126 kts | 220° |
| 2026-04-25 20:02 | 51.07799 | 71.55280 | 2383 ft | 125 kts | 221° |
| 2026-04-25 20:02 | 51.07177 | 71.54308 | 2218 ft | 125 kts | 221° |
| 2026-04-25 20:03 | 51.06563 | 71.53350 | 2052 ft | 124 kts | 221° |
| 2026-04-25 20:03 | 51.05942 | 71.52383 | 1885 ft | 124 kts | 222° |
| 2026-04-25 20:03 | 51.05331 | 71.51428 | 1723 ft | 124 kts | 221° |
| 2026-04-25 20:03 | 51.04720 | 71.50473 | 1556 ft | 123 kts | 221° |
| 2026-04-25 20:04 | 51.04117 | 71.49529 | 1392 ft | 122 kts | 221° |
| 2026-04-25 20:04 | 51.03513 | 71.48585 | 1230 ft | 122 kts | 221° |
| 2026-04-25 20:04 | 51.02927 | 71.47662 | 1164 ft | 107 kts | 224° |
| 2026-04-25 20:04 | 51.02516 | 71.47022 | 1167 ft | 57 kts | 223° |
| 2026-04-25 20:05 | 51.02334 | 71.46736 | 1166 ft | 28 kts | 224° |
| 2026-04-25 20:05 | 51.02198 | 71.46519 | 1166 ft | 26 kts | 224° |
| 2026-04-25 20:05 | 51.02066 | 71.46310 | 1166 ft | 27 kts | 225° |
| 2026-04-25 20:05 | 51.01922 | 71.46079 | 1166 ft | 30 kts | 225° |
| 2026-04-25 20:06 | 51.01788 | 71.45867 | 1169 ft | 20 kts | 226° |
| 2026-04-25 20:06 | 51.01722 | 71.45762 | 1170 ft | 11 kts | 225° |
| 2026-04-25 20:06 | 51.01696 | 71.45671 | 1170 ft | 8 kts | 287° |
| 2026-04-25 20:06 | 51.01740 | 71.45586 | 1168 ft | 10 kts | 315° |
| 2026-04-25 20:07 | 51.01788 | 71.45513 | 1167 ft | 10 kts | 323° |
| 2026-04-25 20:07 | 51.01859 | 71.45538 | 1167 ft | 12 kts | 45° |
| 2026-04-25 20:07 | 51.01918 | 71.45632 | 1168 ft | 12 kts | 46° |
| 2026-04-25 20:07 | 51.01984 | 71.45737 | 1167 ft | 14 kts | 45° |
| 2026-04-25 20:08 | 51.02058 | 71.45852 | 1166 ft | 15 kts | 45° |
| 2026-04-25 20:08 | 51.02134 | 71.45971 | 1166 ft | 15 kts | 45° |
| 2026-04-25 20:08 | 51.02211 | 71.46094 | 1166 ft | 16 kts | 45° |
| 2026-04-25 20:08 | 51.02293 | 71.46220 | 1166 ft | 16 kts | 45° |
| 2026-04-25 20:09 | 51.02375 | 71.46347 | 1166 ft | 16 kts | 45° |
| 2026-04-25 20:09 | 51.02459 | 71.46478 | 1166 ft | 17 kts | 45° |
| 2026-04-25 20:09 | 51.02537 | 71.46600 | 1167 ft | 13 kts | 45° |
| 2026-04-25 20:09 | 51.02594 | 71.46687 | 1168 ft | 9 kts | 43° |
| 2026-04-25 20:10 | 51.02655 | 71.46697 | 1169 ft | 9 kts | 330° |
| 2026-04-25 20:10 | 51.02700 | 71.46614 | 1170 ft | 10 kts | 287° |
| 2026-04-25 20:10 | 51.02698 | 71.46506 | 1170 ft | 6 kts | 265° |
| 2026-04-25 20:10 | 51.02689 | 71.46430 | 1170 ft | 7 kts | 248° |
| 2026-04-25 20:11 | 51.02690 | 71.46365 | 1170 ft | 6 kts | 307° |
| 2026-04-25 20:11 | 51.02714 | 71.46326 | 1169 ft | 1 kts | 315° |